createdAt,value
2018-04-20T00:00:41.528Z,13.60
2018-04-20T00:03:18.802Z,13.60
2018-04-20T00:05:52.090Z,13.40
2018-04-20T00:08:24.776Z,13.30
2018-04-20T00:11:05.275Z,13.20
2018-04-20T00:13:39.292Z,13.20
2018-04-20T00:16:11.730Z,13.20
2018-04-20T00:18:44.271Z,13.20
2018-04-20T00:21:21.683Z,13.10
2018-04-20T00:23:56.351Z,13.30
2018-04-20T00:26:29.926Z,13.40
2018-04-20T00:29:02.923Z,13.30
2018-04-20T00:31:39.721Z,13.30
2018-04-20T00:34:18.095Z,13.40
2018-04-20T00:36:51.574Z,13.50
2018-04-20T00:39:25.589Z,13.50
2018-04-20T00:42:05.646Z,13.50
2018-04-20T00:44:43.195Z,13.00
2018-04-20T00:47:15.558Z,12.90
2018-04-20T00:49:49.115Z,13.10
2018-04-20T00:52:21.674Z,13.10
2018-04-20T00:54:54.394Z,13.10
2018-04-20T00:57:26.919Z,13.10
2018-04-20T01:00:03.161Z,13.00
2018-04-20T01:02:35.686Z,12.90
2018-04-20T01:05:08.045Z,12.60
2018-04-20T01:07:40.459Z,12.40
2018-04-20T01:10:15.614Z,12.50
2018-04-20T01:12:49.111Z,12.50
2018-04-20T01:15:21.942Z,12.50
2018-04-20T01:17:56.379Z,12.30
2018-04-20T01:20:29.224Z,12.30
2018-04-20T01:23:14.339Z,12.20
2018-04-20T01:25:46.767Z,12.10
2018-04-20T01:28:24.681Z,12.10
2018-04-20T01:30:57.602Z,12.30
2018-04-20T01:33:30.201Z,12.40
2018-04-20T01:36:02.706Z,12.40
2018-04-20T01:38:35.799Z,12.10
2018-04-20T01:41:17.357Z,12.20
2018-04-20T01:43:51.857Z,12.20
2018-04-20T01:46:25.460Z,12.20
2018-04-20T01:48:58.766Z,12.20
2018-04-20T01:51:31.218Z,12.10
2018-04-20T01:54:09.390Z,12.00
2018-04-20T01:56:42.818Z,12.00
2018-04-20T01:59:30.088Z,11.90
2018-04-20T02:02:02.555Z,11.60
2018-04-20T02:04:35.014Z,11.50
2018-04-20T02:07:12.640Z,11.90
2018-04-20T02:09:48.983Z,11.80
2018-04-20T02:12:21.515Z,12.10
2018-04-20T02:14:54.982Z,12.20
2018-04-20T02:17:50.619Z,12.30
2018-04-20T02:20:23.098Z,12.30
2018-04-20T02:22:56.354Z,12.20
2018-04-20T02:25:29.859Z,12.20
2018-04-20T02:28:02.819Z,12.20
2018-04-20T02:30:35.470Z,12.20
2018-04-20T02:33:09.174Z,12.20
2018-04-20T02:35:41.515Z,12.30
2018-04-20T02:38:29.566Z,12.20
2018-04-20T02:41:01.979Z,12.20
2018-04-20T02:43:34.482Z,12.20
2018-04-20T02:46:17.359Z,12.20
2018-04-20T02:48:51.210Z,12.10
2018-04-20T02:51:29.542Z,12.00
2018-04-20T02:54:02.211Z,11.90
2018-04-20T02:56:34.803Z,11.80
2018-04-20T02:59:09.279Z,11.90
2018-04-20T03:01:41.851Z,11.90
2018-04-20T03:04:14.219Z,11.90
2018-04-20T03:06:47.727Z,11.90
2018-04-20T03:09:20.242Z,11.90
2018-04-20T03:12:00.854Z,11.90
2018-04-20T03:14:33.632Z,11.70
2018-04-20T03:17:08.942Z,11.70
2018-04-20T03:19:52.293Z,11.70
2018-04-20T03:22:24.667Z,11.70
2018-04-20T03:25:34.182Z,11.60
2018-04-20T03:28:06.619Z,11.60
2018-04-20T03:30:39.104Z,11.60
2018-04-20T03:33:11.695Z,11.60
2018-04-20T03:35:44.330Z,11.40
2018-04-20T03:38:16.831Z,11.40
2018-04-20T03:40:56.594Z,11.40
2018-04-20T03:43:29.980Z,11.30
2018-04-20T03:46:02.492Z,11.00
2018-04-20T03:48:35.018Z,11.20
2018-04-20T03:51:09.392Z,11.40
2018-04-20T03:53:42.970Z,11.40
2018-04-20T03:56:27.673Z,11.40
2018-04-20T03:59:00.047Z,11.50
2018-04-20T04:01:33.334Z,11.40
2018-04-20T04:04:06.963Z,11.40
2018-04-20T04:06:40.407Z,11.40
2018-04-20T04:09:14.915Z,11.50
2018-04-20T04:11:49.264Z,11.10
2018-04-20T04:14:21.914Z,11.10
2018-04-20T04:17:08.491Z,11.00
2018-04-20T04:19:53.850Z,11.00
2018-04-20T04:22:39.974Z,11.00
2018-04-20T04:25:24.804Z,10.90
2018-04-20T04:28:09.607Z,10.90
2018-04-20T04:30:42.102Z,11.30
2018-04-20T04:33:14.621Z,11.30
2018-04-20T04:35:48.200Z,11.70
2018-04-20T04:38:20.715Z,11.90
2018-04-20T04:40:58.910Z,12.00
2018-04-20T04:43:33.714Z,12.10
2018-04-20T04:46:06.130Z,12.20
2018-04-20T04:48:38.570Z,12.50
2018-04-20T04:51:32.886Z,12.80
2018-04-20T04:54:07.283Z,13.00
2018-04-20T04:56:40.901Z,13.00
2018-04-20T04:59:15.338Z,13.10
2018-04-20T05:01:50.986Z,13.20
2018-04-20T05:04:37.696Z,13.30
2018-04-20T05:07:10.248Z,13.40
2018-04-20T05:09:42.713Z,13.40
2018-04-20T05:12:15.099Z,13.50
2018-04-20T05:14:47.575Z,13.70
2018-04-20T05:17:19.891Z,13.80
2018-04-20T05:19:52.314Z,13.70
2018-04-20T05:22:25.371Z,13.80
2018-04-20T05:25:01.402Z,13.80
2018-04-20T05:27:33.962Z,13.60
2018-04-20T05:30:07.578Z,13.60
2018-04-20T05:32:39.870Z,13.60
2018-04-20T05:35:13.138Z,13.90
2018-04-20T05:37:46.279Z,14.00
2018-04-20T05:40:22.919Z,14.00
2018-04-20T05:42:55.415Z,14.00
2018-04-20T05:45:28.783Z,14.30
2018-04-20T05:48:01.216Z,14.30
2018-04-20T05:50:38.833Z,14.60
2018-04-20T05:53:11.471Z,14.50
2018-04-20T05:55:44.018Z,14.60
2018-04-20T05:58:16.538Z,14.50
2018-04-20T06:00:48.959Z,14.70
2018-04-20T06:03:21.866Z,14.80
2018-04-20T06:05:55.151Z,15.10
2018-04-20T06:08:30.314Z,15.30
2018-04-20T06:11:03.143Z,15.30
2018-04-20T06:13:35.599Z,15.30
2018-04-20T06:16:08.228Z,15.20
2018-04-20T06:18:40.818Z,15.30
2018-04-20T06:21:13.391Z,15.30
2018-04-20T06:23:45.893Z,15.40
2018-04-20T06:26:19.495Z,15.60
2018-04-20T06:28:52.085Z,15.40
2018-04-20T06:31:25.730Z,16.00
2018-04-20T06:33:59.011Z,16.20
2018-04-20T06:36:32.211Z,16.30
2018-04-20T06:39:05.766Z,16.30
2018-04-20T06:41:38.256Z,16.30
2018-04-20T06:44:10.798Z,16.40
2018-04-20T06:46:43.195Z,16.60
2018-04-20T06:49:15.483Z,16.70
2018-04-20T06:51:47.913Z,16.70
2018-04-20T06:54:21.049Z,16.90
2018-04-20T06:56:54.731Z,16.80
2018-04-20T06:59:27.106Z,16.90
2018-04-20T07:01:59.530Z,17.10
2018-04-20T07:04:32.859Z,17.40
2018-04-20T07:07:05.213Z,17.40
2018-04-20T07:09:37.554Z,17.40
2018-04-20T07:12:10.156Z,17.50
2018-04-20T07:14:42.629Z,17.50
2018-04-20T07:17:15.024Z,17.60
2018-04-20T07:19:47.358Z,17.80
2018-04-20T07:22:19.919Z,17.80
2018-04-20T07:24:52.235Z,17.80
2018-04-20T07:27:26.583Z,18.00
2018-04-20T07:29:59.153Z,18.00
2018-04-20T07:32:32.553Z,18.20
2018-04-20T07:35:05.072Z,18.40
2018-04-20T07:37:37.967Z,18.50
2018-04-20T07:40:10.439Z,18.60
2018-04-20T07:42:43.210Z,18.60
2018-04-20T07:45:15.602Z,18.60
2018-04-20T07:47:48.083Z,18.70
2018-04-20T07:50:20.386Z,18.90
2018-04-20T07:52:56.362Z,18.90
2018-04-20T07:55:28.796Z,18.80
2018-04-20T07:58:01.307Z,18.80
2018-04-20T08:00:33.658Z,19.10
2018-04-20T08:03:06.049Z,19.30
2018-04-20T08:05:38.646Z,19.20
2018-04-20T08:08:11.319Z,19.30
2018-04-20T08:10:43.729Z,19.20
2018-04-20T08:13:19.794Z,19.50
2018-04-20T08:15:52.130Z,19.50
2018-04-20T08:18:24.752Z,19.70
2018-04-20T08:20:57.142Z,19.90
2018-04-20T08:23:29.704Z,20.00
2018-04-20T08:26:01.990Z,20.00
2018-04-20T08:28:34.797Z,20.30
2018-04-20T08:31:07.310Z,20.10
2018-04-20T08:33:39.837Z,20.20
2018-04-20T08:36:12.177Z,20.40
2018-04-20T08:38:44.780Z,20.50
2018-04-20T08:41:17.366Z,20.60
2018-04-20T08:43:49.840Z,20.60
2018-04-20T08:46:22.464Z,20.60
2018-04-20T08:48:55.305Z,20.70
2018-04-20T08:51:28.490Z,20.90
2018-04-20T08:54:01.236Z,20.90
2018-04-20T08:56:33.801Z,20.90
2018-04-20T08:59:06.407Z,20.90
2018-04-20T09:01:39.467Z,21.00
2018-04-20T09:04:12.086Z,21.00
2018-04-20T09:06:45.411Z,21.20
2018-04-20T09:09:17.957Z,21.00
2018-04-20T09:11:50.374Z,21.40
2018-04-20T09:14:22.904Z,21.60
2018-04-20T09:16:56.159Z,21.70
2018-04-20T09:19:28.532Z,21.70
2018-04-20T09:22:01.066Z,21.80
2018-04-20T09:24:33.447Z,21.90
2018-04-20T09:27:06.503Z,22.30
2018-04-20T09:29:38.875Z,22.30
2018-04-20T09:32:11.415Z,22.30
2018-04-20T09:34:43.935Z,22.40
2018-04-20T09:37:16.511Z,22.30
2018-04-20T09:39:49.210Z,22.20
2018-04-20T09:42:21.843Z,22.30
2018-04-20T09:44:54.368Z,22.40
2018-04-20T09:47:27.635Z,22.60
2018-04-20T09:50:00.381Z,22.90
2018-04-20T09:52:33.646Z,23.20
2018-04-20T09:55:06.278Z,23.20
2018-04-20T09:57:39.471Z,23.10
2018-04-20T10:00:12.025Z,23.00
2018-04-20T10:02:46.351Z,23.20
2018-04-20T10:05:23.916Z,23.30
2018-04-20T10:07:57.183Z,23.60
2018-04-20T10:10:29.837Z,23.60
2018-04-20T10:13:02.374Z,23.70
2018-04-20T10:15:35.203Z,23.80
2018-04-20T10:18:07.605Z,23.80
2018-04-20T10:20:40.202Z,23.90
2018-04-20T10:23:12.754Z,24.00
2018-04-20T10:25:45.858Z,24.30
2018-04-20T10:28:18.384Z,24.30
2018-04-20T10:30:51.123Z,24.20
2018-04-20T10:33:23.647Z,24.70
2018-04-20T10:35:56.323Z,24.70
2018-04-20T10:38:28.814Z,24.80
2018-04-20T10:41:01.344Z,24.50
2018-04-20T10:43:37.310Z,24.60
2018-04-20T10:46:09.707Z,24.70
2018-04-20T10:48:42.293Z,24.70
2018-04-20T10:51:14.674Z,25.00
2018-04-20T10:53:47.103Z,25.10
2018-04-20T10:56:19.623Z,25.30
2018-04-20T10:58:53.896Z,25.70
2018-04-20T11:01:27.130Z,25.50
2018-04-20T11:03:59.699Z,25.50
2018-04-20T11:06:32.369Z,25.40
2018-04-20T11:09:06.494Z,25.30
2018-04-20T11:11:38.989Z,25.30
2018-04-20T11:14:12.090Z,25.30
2018-04-20T11:16:44.603Z,25.30
2018-04-20T11:19:17.023Z,25.40
2018-04-20T11:21:49.562Z,25.30
2018-04-20T11:24:21.994Z,25.40
2018-04-20T11:26:55.353Z,25.70
2018-04-20T11:29:27.697Z,25.60
2018-04-20T11:32:09.438Z,25.90
2018-04-20T11:34:41.787Z,25.90
2018-04-20T11:37:14.283Z,26.00
2018-04-20T11:39:46.744Z,26.20
2018-04-20T11:42:19.138Z,26.30
2018-04-20T11:44:52.404Z,26.40
2018-04-20T11:47:25.578Z,26.30
2018-04-20T11:49:58.014Z,26.40
2018-04-20T11:52:30.563Z,26.70
2018-04-20T11:55:03.155Z,26.80
2018-04-20T11:57:35.499Z,26.80
2018-04-20T12:00:08.779Z,27.30
2018-04-20T12:02:41.202Z,27.30
2018-04-20T12:05:13.961Z,27.10
2018-04-20T12:07:47.610Z,26.30
2018-04-20T12:10:20.005Z,26.30
2018-04-20T12:12:52.511Z,26.40
2018-04-20T12:15:24.863Z,26.20
2018-04-20T12:17:57.402Z,26.20
2018-04-20T12:20:30.019Z,26.30
2018-04-20T12:23:02.391Z,26.30
2018-04-20T12:25:34.994Z,26.50
2018-04-20T12:28:07.358Z,26.50
2018-04-20T12:30:39.802Z,26.60
2018-04-20T12:33:12.493Z,26.70
2018-04-20T12:35:44.818Z,26.60
2018-04-20T12:38:17.299Z,26.70
2018-04-20T12:40:49.623Z,26.90
2018-04-20T12:43:23.327Z,27.20
2018-04-20T12:45:55.871Z,27.40
2018-04-20T12:48:28.264Z,27.20
2018-04-20T12:51:00.630Z,27.30
2018-04-20T12:53:33.346Z,27.20
2018-04-20T12:56:05.902Z,27.10
2018-04-20T12:58:38.371Z,27.30
2018-04-20T13:01:11.650Z,27.30
2018-04-20T13:03:44.374Z,27.30
2018-04-20T13:06:16.846Z,27.40
2018-04-20T13:08:49.539Z,27.50
2018-04-20T13:11:22.101Z,27.50
2018-04-20T13:13:54.655Z,27.50
2018-04-20T13:16:26.947Z,27.70
2018-04-20T13:19:00.024Z,27.30
2018-04-20T13:21:32.973Z,27.30
2018-04-20T13:24:05.388Z,27.30
2018-04-20T13:26:37.916Z,27.40
2018-04-20T13:29:11.278Z,27.70
2018-04-20T13:31:43.905Z,27.70
2018-04-20T13:34:16.510Z,27.70
2018-04-20T13:36:49.074Z,27.70
2018-04-20T13:39:22.433Z,27.80
2018-04-20T13:41:55.585Z,27.80
2018-04-20T13:44:28.006Z,27.70
2018-04-20T13:47:01.058Z,28.10
2018-04-20T13:49:33.550Z,28.10
2018-04-20T13:52:06.675Z,27.90
2018-04-20T13:54:39.119Z,27.90
2018-04-20T13:57:11.426Z,28.00
2018-04-20T13:59:43.899Z,28.00
2018-04-20T14:02:16.386Z,27.90
2018-04-20T14:04:56.152Z,27.90
2018-04-20T14:07:28.812Z,27.80
2018-04-20T14:10:01.275Z,27.70
2018-04-20T14:12:44.678Z,27.80
2018-04-20T14:15:17.327Z,27.90
2018-04-20T14:17:53.604Z,27.90
2018-04-20T14:20:27.151Z,27.80
2018-04-20T14:22:59.617Z,28.10
2018-04-20T14:25:46.859Z,27.90
2018-04-20T14:28:19.323Z,27.90
2018-04-20T14:30:52.616Z,27.90
2018-04-20T14:33:25.110Z,27.80
2018-04-20T14:35:57.659Z,27.80
2018-04-20T14:38:31.154Z,27.90
2018-04-20T14:41:28.097Z,28.10
2018-04-20T14:44:00.739Z,28.20
2018-04-20T14:46:33.172Z,28.30
2018-04-20T14:49:05.775Z,28.40
2018-04-20T14:51:38.279Z,28.30
2018-04-20T14:54:22.390Z,28.40
2018-04-20T14:56:54.915Z,28.30
2018-04-20T14:59:28.544Z,28.30
2018-04-20T15:02:05.120Z,28.40
2018-04-20T15:04:37.578Z,28.40
2018-04-20T15:07:26.935Z,28.50
2018-04-20T15:10:00.162Z,28.30
2018-04-20T15:13:01.271Z,28.30
2018-04-20T15:15:33.739Z,28.40
2018-04-20T15:18:08.187Z,28.30
2018-04-20T15:20:40.552Z,28.40
2018-04-20T15:23:13.265Z,28.30
2018-04-20T15:25:45.730Z,28.30
2018-04-20T15:28:18.256Z,28.30
2018-04-20T15:30:51.611Z,28.10
2018-04-20T15:33:24.164Z,28.10
2018-04-20T15:36:05.121Z,28.10
2018-04-20T15:38:37.954Z,28.00
2018-04-20T15:41:39.782Z,28.10
2018-04-20T15:44:12.391Z,28.00
2018-04-20T15:46:52.170Z,27.80
2018-04-20T15:49:25.695Z,27.80
2018-04-20T15:51:58.116Z,28.00
2018-04-20T15:54:30.735Z,28.00
2018-04-20T15:57:03.208Z,27.80
2018-04-20T15:59:39.914Z,27.90
2018-04-20T16:02:17.087Z,27.90
2018-04-20T16:04:50.650Z,27.80
2018-04-20T16:07:23.090Z,27.60
2018-04-20T16:09:55.695Z,27.60
2018-04-20T16:12:40.939Z,27.40
2018-04-20T16:15:13.822Z,27.40
2018-04-20T16:17:46.272Z,27.70
2018-04-20T16:20:19.006Z,27.70
2018-04-20T16:22:51.536Z,27.70
2018-04-20T16:25:25.217Z,27.40
2018-04-20T16:27:57.546Z,27.40
2018-04-20T16:30:30.167Z,27.50
2018-04-20T16:33:02.613Z,27.40
2018-04-20T16:35:35.322Z,27.30
2018-04-20T16:38:07.836Z,27.20
2018-04-20T16:41:18.660Z,27.00
2018-04-20T16:43:51.274Z,27.00
2018-04-20T16:46:23.714Z,27.00
2018-04-20T16:48:56.985Z,26.90
2018-04-20T16:51:29.736Z,26.90
2018-04-20T16:54:06.188Z,26.80
2018-04-20T16:56:43.494Z,26.80
2018-04-20T16:59:16.072Z,26.80
2018-04-20T17:01:50.750Z,26.90
2018-04-20T17:04:24.296Z,26.70
2018-04-20T17:06:56.801Z,26.50
2018-04-20T17:09:37.558Z,26.50
2018-04-20T17:12:13.170Z,26.40
2018-04-20T17:14:45.841Z,26.30
2018-04-20T17:17:19.004Z,25.90
2018-04-20T17:19:51.463Z,25.80
2018-04-20T17:22:23.996Z,25.80
2018-04-20T17:24:56.322Z,25.70
2018-04-20T17:27:30.984Z,25.50
2018-04-20T17:30:04.220Z,25.30
2018-04-20T17:32:40.886Z,25.30
2018-04-20T17:35:20.483Z,25.20
2018-04-20T17:37:53.090Z,25.20
2018-04-20T17:40:25.439Z,25.20
2018-04-20T17:42:59.209Z,25.00
2018-04-20T17:45:31.550Z,25.00
2018-04-20T17:48:04.191Z,24.90
2018-04-20T17:50:37.856Z,24.70
2018-04-20T17:53:13.984Z,24.60
2018-04-20T17:55:46.531Z,24.20
2018-04-20T17:58:19.985Z,24.00
2018-04-20T18:00:52.454Z,23.80
2018-04-20T18:03:24.847Z,23.50
2018-04-20T18:05:57.369Z,23.20
2018-04-20T18:08:29.698Z,23.10
2018-04-20T18:11:04.238Z,22.90
2018-04-20T18:13:36.836Z,22.80
2018-04-20T18:16:13.708Z,22.70
2018-04-20T18:18:46.455Z,22.40
2018-04-20T18:21:24.946Z,22.10
2018-04-20T18:24:06.548Z,21.90
2018-04-20T18:26:39.071Z,21.70
2018-04-20T18:29:11.439Z,21.50
2018-04-20T18:31:55.667Z,21.00
2018-04-20T18:34:32.226Z,21.00
2018-04-20T18:37:04.592Z,21.00
2018-04-20T18:39:37.294Z,21.10
2018-04-20T18:42:21.427Z,21.10
2018-04-20T18:44:59.146Z,21.00
2018-04-20T18:47:32.527Z,20.90
2018-04-20T18:50:04.989Z,20.80
2018-04-20T18:52:37.287Z,20.90
2018-04-20T18:55:34.746Z,20.90
2018-04-20T18:58:09.004Z,20.70
2018-04-20T19:00:41.443Z,20.70
2018-04-20T19:03:27.287Z,20.30
2018-04-20T19:06:00.722Z,20.30
2018-04-20T19:08:34.302Z,20.00
2018-04-20T19:11:07.601Z,19.80
2018-04-20T19:13:41.256Z,19.80
2018-04-20T19:16:17.017Z,19.60
2018-04-20T19:18:50.168Z,19.40
2018-04-20T19:21:30.609Z,19.40
2018-04-20T19:24:43.978Z,19.40
2018-04-20T19:27:16.358Z,19.30
2018-04-20T19:30:01.801Z,19.40
2018-04-20T19:32:42.648Z,19.60
2018-04-20T19:35:22.911Z,19.50
2018-04-20T19:38:04.823Z,19.60
2018-04-20T19:40:37.115Z,19.60
2018-04-20T19:43:10.443Z,19.10
2018-04-20T19:45:45.594Z,18.80
2018-04-20T19:48:18.123Z,18.80
2018-04-20T19:50:50.678Z,18.30
2018-04-20T19:53:26.908Z,18.10
2018-04-20T19:56:02.022Z,17.70
2018-04-20T19:58:34.575Z,17.70
2018-04-20T20:01:12.503Z,17.50
2018-04-20T20:03:45.385Z,17.50
2018-04-20T20:06:28.448Z,17.70
2018-04-20T20:09:16.062Z,18.10
2018-04-20T20:11:48.590Z,18.10
2018-04-20T20:14:21.908Z,18.30
2018-04-20T20:17:08.683Z,18.30
2018-04-20T20:19:41.064Z,18.30
2018-04-20T20:22:18.541Z,18.20
2018-04-20T20:24:54.074Z,18.10
2018-04-20T20:27:26.456Z,18.00
2018-04-20T20:30:00.147Z,18.10
2018-04-20T20:32:32.706Z,18.10
2018-04-20T20:35:05.850Z,18.20
2018-04-20T20:37:39.020Z,18.20
2018-04-20T20:40:11.411Z,18.20
2018-04-20T20:42:43.955Z,18.30
2018-04-20T20:45:16.332Z,18.10
2018-04-20T20:47:49.571Z,18.00
2018-04-20T20:50:21.962Z,18.00
2018-04-20T20:52:54.579Z,17.90
2018-04-20T20:55:27.038Z,17.80
2018-04-20T20:57:59.369Z,17.70
2018-04-20T21:00:35.080Z,17.50
2018-04-20T21:03:07.578Z,17.50
2018-04-20T21:05:40.162Z,17.50
2018-04-20T21:08:12.534Z,17.50
2018-04-20T21:10:45.813Z,17.40
2018-04-20T21:13:18.966Z,17.30
2018-04-20T21:15:51.657Z,17.30
2018-04-20T21:18:23.962Z,17.30
2018-04-20T21:20:56.414Z,17.20
2018-04-20T21:23:28.834Z,17.20
2018-04-20T21:26:01.407Z,17.10
2018-04-20T21:28:33.835Z,17.00
2018-04-20T21:31:06.482Z,16.90
2018-04-20T21:33:39.106Z,16.60
2018-04-20T21:36:11.576Z,16.30
2018-04-20T21:38:44.172Z,16.50
2018-04-20T21:41:18.444Z,16.70
2018-04-20T21:43:51.899Z,16.70
2018-04-20T21:46:24.417Z,16.60
2018-04-20T21:48:56.937Z,16.40
2018-04-20T21:51:30.160Z,16.10
2018-04-20T21:54:02.671Z,16.10
2018-04-20T21:56:35.260Z,16.20
2018-04-20T21:59:10.912Z,16.20
2018-04-20T22:01:44.063Z,16.30
2018-04-20T22:04:16.508Z,16.20
2018-04-20T22:06:49.032Z,16.40
2018-04-20T22:09:21.502Z,16.40
2018-04-20T22:11:54.503Z,16.20
2018-04-20T22:14:42.803Z,16.10
2018-04-20T22:17:18.487Z,16.30
2018-04-20T22:19:51.102Z,16.30
2018-04-20T22:22:24.374Z,16.20
2018-04-20T22:24:57.053Z,16.20
2018-04-20T22:27:29.640Z,16.20
2018-04-20T22:30:01.947Z,16.10
2018-04-20T22:32:35.714Z,15.80
2018-04-20T22:35:08.134Z,15.60
2018-04-20T22:37:40.894Z,15.40
2018-04-20T22:40:13.292Z,15.20
2018-04-20T22:42:46.500Z,15.10
2018-04-20T22:45:19.007Z,15.10
2018-04-20T22:47:51.711Z,14.90
2018-04-20T22:50:24.258Z,14.80
2018-04-20T22:52:56.724Z,14.70
2018-04-20T22:55:29.152Z,14.50
2018-04-20T22:58:10.242Z,14.30
2018-04-20T23:00:43.446Z,14.20
2018-04-20T23:03:15.930Z,14.20
2018-04-20T23:05:49.511Z,14.40
2018-04-20T23:08:21.963Z,14.10
2018-04-20T23:10:55.230Z,13.90
2018-04-20T23:13:28.444Z,13.90
2018-04-20T23:16:01.044Z,13.90
2018-04-20T23:18:34.224Z,14.10
2018-04-20T23:21:06.676Z,14.10
2018-04-20T23:23:39.311Z,14.00
2018-04-20T23:26:11.686Z,14.00
2018-04-20T23:28:44.035Z,14.00
2018-04-20T23:31:16.415Z,13.80
2018-04-20T23:33:48.856Z,13.70
2018-04-20T23:36:21.385Z,13.60
2018-04-20T23:38:53.860Z,13.50
2018-04-20T23:41:26.427Z,13.40
2018-04-20T23:43:58.925Z,13.30
2018-04-20T23:46:31.246Z,13.20
2018-04-20T23:49:04.080Z,13.30
2018-04-20T23:51:36.803Z,13.30
2018-04-20T23:54:09.330Z,13.30
2018-04-20T23:56:41.859Z,13.20
2018-04-20T23:59:14.293Z,13.20
